Time;durP1;ratioP1;P1;durP2;ratioP2;P2;SDS_P1;SDS_P2;PMS_P1;PMS_P2;Temp;Humidity;BMP_temperature;BMP_pressure;BME280_temperature;BME280_humidity;BME280_pressure;Samples;Min_cycle;Max_cycle;Signal;HPM_P1;HPM_P2
2023/10/21 00:02:16;15586.00;0.05;27.63;0.00;0.00;0.62;;;;;19.10;1.00;;;;;;2276039;61;1406;-88
2023/10/21 00:04:43;110003.00;0.37;190.84;0.00;0.00;0.62;;;;;18.90;1.00;;;;;;2276026;61;1138;-89
2023/10/21 00:07:12;40462.00;0.13;70.69;0.00;0.00;0.62;;;;;19.00;1.00;;;;;;2276042;61;1018;-89
2023/10/21 00:09:39;184940.00;0.62;320.00;0.00;0.00;0.62;;;;;18.90;1.00;;;;;;2278355;40;3580;-88
2023/10/21 00:12:06;45198.00;0.15;78.88;0.00;0.00;0.62;;;;;18.50;1.00;;;;;;2285330;55;3741;-88
2023/10/21 00:17:03;416527.00;1.39;718.22;0.00;0.00;0.62;;;;;18.40;1.00;;;;;;2287208;55;3654;-88
2023/10/21 00:19:30;44588.00;0.15;77.83;0.00;0.00;0.62;;;;;18.60;1.00;;;;;;2275919;61;1657;-89
2023/10/21 00:26:57;310826.00;1.04;536.53;0.00;0.00;0.62;;;;;18.70;1.00;;;;;;2277708;61;1318;-87
2023/10/21 00:29:24;0.00;0.00;0.62;0.00;0.00;0.62;;;;;18.70;1.00;;;;;;2285522;55;3597;-86
2023/10/21 00:36:46;153318.00;0.51;265.53;0.00;0.00;0.62;;;;;18.50;1.00;;;;;;1992951;40;3362;-88
2023/10/21 00:39:13;314519.00;1.05;542.88;0.00;0.00;0.62;;;;;18.40;1.00;;;;;;2283354;40;3558;-88
2023/10/21 00:44:09;545360.00;1.82;939.96;0.00;0.00;0.62;;;;;18.50;1.00;;;;;;2292121;56;3614;-89
2023/10/21 00:49:04;244905.00;0.82;423.19;0.00;0.00;0.62;;;;;18.70;1.00;;;;;;2286875;55;3675;-89
2023/10/21 00:54:01;694505.00;2.32;1197.71;0.00;0.00;0.62;;;;;18.80;1.00;;;;;;2278040;61;1360;-88
2023/10/21 00:56:28;176296.00;0.59;305.11;0.00;0.00;0.62;;;;;18.40;1.00;;;;;;2337019;56;3754;-89
2023/10/21 01:18:48;513567.00;1.71;885.19;0.00;0.00;0.62;;;;;18.20;1.00;;;;;;2292219;56;3604;-88
2023/10/21 01:31:21;521488.00;1.74;898.83;0.00;0.00;0.62;;;;;18.90;1.00;;;;;;2362041;55;3608;-88
2023/10/21 01:48:55;905892.00;3.02;1566.47;19318.00;0.06;34.09;;;;;18.60;1.00;;;;;;1618271;40;3468;-89
2023/10/21 01:57:03;801604.00;2.67;1383.92;0.00;0.00;0.62;;;;;18.10;1.00;;;;;;2301702;40;3435;-88
2023/10/21 02:12:12;1053253.00;3.51;1827.02;19255.00;0.06;33.98;;;;;17.70;1.00;;;;;;2278095;61;1359;-89
2023/10/21 02:17:13;762145.00;2.54;1315.18;0.00;0.00;0.62;;;;;16.80;1.00;;;;;;2277651;61;1227;-88
2023/10/21 02:19:47;265369.00;0.88;458.38;0.00;0.00;0.62;;;;;16.80;1.00;;;;;;2301375;40;3606;-86
2023/10/21 02:24:46;1353886.00;4.51;2371.07;76182.00;0.25;132.44;;;;;17.10;1.00;;;;;;1389838;40;3475;-84
2023/10/21 02:27:19;349225.00;1.16;602.53;0.00;0.00;0.62;;;;;17.40;1.00;;;;;;2302783;40;3713;-87
2023/10/21 02:29:51;160806.00;0.54;278.43;0.00;0.00;0.62;;;;;17.40;1.00;;;;;;2276272;61;1929;-87
2023/10/21 02:32:24;146056.00;0.49;253.01;0.00;0.00;0.62;;;;;16.90;1.00;;;;;;2276178;61;1411;-87
2023/10/21 02:34:55;410404.00;1.37;707.69;37342.00;0.12;65.29;;;;;16.50;1.00;;;;;;2280023;55;3759;-88
2023/10/21 02:37:22;146344.00;0.49;253.51;0.00;0.00;0.62;;;;;16.40;1.00;;;;;;2276370;61;1754;-89
2023/10/21 02:42:27;1027466.00;3.42;1781.18;0.00;0.00;0.62;;;;;16.80;1.00;;;;;;2277930;61;1371;-89
2023/10/21 02:44:54;199482.00;0.66;345.03;0.00;0.00;0.62;;;;;16.70;1.00;;;;;;2276362;61;959;-86
2023/10/21 02:47:24;159307.00;0.53;275.85;0.00;0.00;0.62;;;;;16.20;1.00;;;;;;2276334;61;985;-88
2023/10/21 02:49:56;207437.00;0.69;358.72;0.00;0.00;0.62;;;;;16.20;1.00;;;;;;2276171;61;1919;-85
2023/10/21 02:52:23;73135.00;0.24;127.18;0.00;0.00;0.62;;;;;16.20;1.00;;;;;;2276323;61;1687;-86
2023/10/21 02:54:51;200368.00;0.67;346.56;0.00;0.00;0.62;;;;;16.40;1.00;;;;;;2276181;61;1139;-88
2023/10/21 02:59:48;961804.00;3.21;1664.94;0.00;0.00;0.62;;;;;16.90;1.00;;;;;;820681;40;3430;-86
2023/10/21 03:02:16;147740.00;0.49;255.91;0.00;0.00;0.62;;;;;17.20;1.00;;;;;;2276412;61;1415;-89
2023/10/21 03:07:14;564667.00;1.88;973.25;0.00;0.00;0.62;;;;;17.10;1.00;;;;;;2277986;61;1328;-88
2023/10/21 03:09:41;74759.00;0.25;129.98;0.00;0.00;0.62;;;;;17.30;1.00;;;;;;2276545;61;1994;-89
2023/10/21 03:12:09;204531.00;0.68;353.72;0.00;0.00;0.62;;;;;17.40;1.00;;;;;;2276618;61;1473;-88
2023/10/21 03:17:06;721971.00;2.41;1245.36;100208.00;0.33;173.93;;;;;17.40;1.00;;;;;;2283515;55;3665;-86
2023/10/21 03:19:33;46137.00;0.15;80.50;0.00;0.00;0.62;;;;;17.60;1.00;;;;;;2276598;61;1634;-87
2023/10/21 03:22:00;149423.00;0.50;258.81;0.00;0.00;0.62;;;;;17.50;1.00;;;;;;2276337;61;1591;-88
2023/10/21 03:24:29;212693.00;0.71;367.77;0.00;0.00;0.62;;;;;17.20;1.00;;;;;;2276593;61;1670;-87
2023/10/21 03:26:56;96087.00;0.32;166.82;0.00;0.00;0.62;;;;;16.80;1.00;;;;;;2276611;61;1446;-89
2023/10/21 03:29:24;55860.00;0.19;97.32;0.00;0.00;0.62;;;;;16.80;1.00;;;;;;2276587;61;1927;-89
2023/10/21 03:31:51;160074.00;0.53;277.17;0.00;0.00;0.62;;;;;16.80;1.00;;;;;;2276596;61;1563;-89
2023/10/21 03:34:19;294314.00;0.98;508.15;0.00;0.00;0.62;;;;;16.90;1.00;;;;;;2276526;61;1540;-88
2023/10/21 03:36:47;108459.00;0.36;188.17;0.00;0.00;0.62;;;;;17.20;1.00;;;;;;2276578;61;974;-88
2023/10/21 03:39:14;171325.00;0.57;296.55;0.00;0.00;0.62;;;;;17.20;1.00;;;;;;2276530;61;1721;-87
2023/10/21 03:41:41;125604.00;0.42;217.75;0.00;0.00;0.62;;;;;17.40;1.00;;;;;;2276455;61;1300;-87
2023/10/21 03:44:10;243860.00;0.81;421.39;686.00;0.00;1.81;;;;;17.40;1.00;;;;;;2276393;61;1549;-86
2023/10/21 03:46:37;124890.00;0.42;216.52;0.00;0.00;0.62;;;;;17.50;1.00;;;;;;2276571;61;1152;-86
2023/10/21 03:49:04;98383.00;0.33;170.78;0.00;0.00;0.62;;;;;17.90;1.00;;;;;;2276458;61;1457;-88
2023/10/21 03:51:32;186661.00;0.62;322.96;0.00;0.00;0.62;;;;;18.30;1.00;;;;;;2276446;61;2001;-87
2023/10/21 03:53:59;357228.00;1.19;616.28;49772.00;0.17;86.79;;;;;18.50;1.00;;;;;;2276419;61;1160;-87
2023/10/21 03:56:31;0.00;0.00;0.62;0.00;0.00;0.62;;;;;18.70;1.00;;;;;;2276489;61;1101;-87
2023/10/21 03:58:58;34224.00;0.11;59.89;0.00;0.00;0.62;;;;;18.80;1.00;;;;;;2276547;61;1073;-86
2023/10/21 04:01:25;254999.00;0.85;440.55;0.00;0.00;0.62;;;;;18.90;1.00;;;;;;2276403;61;1743;-85
2023/10/21 04:03:52;110045.00;0.37;190.91;0.00;0.00;0.62;;;;;19.20;1.00;;;;;;2276539;61;895;-88
2023/10/21 04:06:19;288361.00;0.96;497.91;58146.00;0.19;101.27;;;;;19.20;1.00;;;;;;2276371;61;1384;-87
2023/10/21 04:08:48;155486.00;0.52;269.26;0.00;0.00;0.62;;;;;19.20;1.00;;;;;;2276434;61;1069;-89
2023/10/21 04:11:15;209190.00;0.70;361.74;0.00;0.00;0.62;;;;;19.30;1.00;;;;;;2276382;61;1998;-86
2023/10/21 04:13:42;120213.00;0.40;208.45;0.00;0.00;0.62;;;;;19.30;1.00;;;;;;2276401;61;1788;-85
2023/10/21 04:16:11;128521.00;0.43;222.78;0.00;0.00;0.62;;;;;19.40;1.00;;;;;;2276356;61;1525;-87
2023/10/21 04:18:39;0.00;0.00;0.62;0.00;0.00;0.62;;;;;19.50;1.00;;;;;;2276403;61;1086;-87
2023/10/21 04:21:06;139067.00;0.46;240.96;0.00;0.00;0.62;;;;;19.60;1.00;;;;;;2276447;61;920;-87
2023/10/21 04:23:33;135123.00;0.45;234.16;0.00;0.00;0.62;;;;;19.70;1.00;;;;;;2276356;61;1179;-87
2023/10/21 04:26:03;162806.00;0.54;281.87;0.00;0.00;0.62;;;;;19.70;1.00;;;;;;2276377;61;2270;-87
2023/10/21 04:28:30;87939.00;0.29;152.75;0.00;0.00;0.62;;;;;19.60;1.00;;;;;;2276367;61;1131;-86
2023/10/21 04:30:57;45015.00;0.15;78.56;0.00;0.00;0.62;;;;;19.60;1.00;;;;;;2276329;61;1914;-86
2023/10/21 04:33:23;222222.00;0.74;384.17;0.00;0.00;0.62;;;;;19.50;1.00;;;;;;2276153;61;1486;-87
2023/10/21 04:35:50;53139.00;0.18;92.61;0.00;0.00;0.62;;;;;19.50;1.00;;;;;;2276421;61;1111;-86
2023/10/21 04:38:18;250912.00;0.84;433.52;26704.00;0.09;46.88;;;;;19.40;1.00;;;;;;2276286;61;1549;-87
2023/10/21 04:40:47;0.00;0.00;0.62;0.00;0.00;0.62;;;;;19.30;1.00;;;;;;2276322;61;2232;-87
2023/10/21 04:43:16;121657.00;0.41;210.94;0.00;0.00;0.62;;;;;19.40;1.00;;;;;;2276218;61;1573;-88
2023/10/21 04:45:43;177263.00;0.59;306.78;0.00;0.00;0.62;;;;;19.30;1.00;;;;;;2276306;61;1178;-87
2023/10/21 04:48:12;188765.00;0.63;326.58;0.00;0.00;0.62;;;;;19.10;1.00;;;;;;2276180;61;1639;-86
2023/10/21 04:50:38;117795.00;0.39;204.28;0.00;0.00;0.62;;;;;19.10;1.00;;;;;;2276236;61;1927;-87
2023/10/21 04:53:05;196909.00;0.66;340.60;0.00;0.00;0.62;;;;;19.10;1.00;;;;;;2276314;61;1351;-87
2023/10/21 04:55:33;94511.00;0.32;164.10;0.00;0.00;0.62;;;;;19.10;1.00;;;;;;2276309;61;1023;-86
2023/10/21 04:57:59;10618.00;0.04;19.02;0.00;0.00;0.62;;;;;19.00;1.00;;;;;;2276339;61;1127;-88
2023/10/21 05:00:28;115252.00;0.38;199.89;0.00;0.00;0.62;;;;;19.00;1.00;;;;;;2276333;61;995;-86
2023/10/21 05:02:55;102084.00;0.34;177.17;0.00;0.00;0.62;;;;;18.70;1.00;;;;;;2276298;61;1361;-86
2023/10/21 05:05:22;298943.00;1.00;516.10;53424.00;0.18;93.11;;;;;18.50;1.00;;;;;;2276246;61;1588;-87
2023/10/21 05:07:49;42132.00;0.14;73.58;0.00;0.00;0.62;;;;;18.40;1.00;;;;;;2276338;61;1013;-88
2023/10/21 05:10:18;7063.00;0.02;12.86;0.00;0.00;0.62;;;;;18.30;1.00;;;;;;2276200;61;1992;-88
2023/10/21 05:12:45;0.00;0.00;0.62;0.00;0.00;0.62;;;;;18.30;1.00;;;;;;2276235;61;1372;-86
2023/10/21 05:15:15;208453.00;0.69;360.47;0.00;0.00;0.62;;;;;18.20;1.00;;;;;;2276273;61;1540;-87
2023/10/21 05:17:43;94337.00;0.31;163.80;0.00;0.00;0.62;;;;;17.90;1.00;;;;;;2276175;61;1060;-87
2023/10/21 05:20:15;79159.00;0.26;137.58;0.00;0.00;0.62;;;;;17.80;1.00;;;;;;2276155;61;1452;-86
2023/10/21 05:22:42;38688.00;0.13;67.62;0.00;0.00;0.62;;;;;17.90;1.00;;;;;;2276217;61;1396;-86
2023/10/21 05:25:10;159396.00;0.53;276.00;0.00;0.00;0.62;;;;;18.10;1.00;;;;;;2276138;61;1619;-86
2023/10/21 05:27:36;115051.00;0.38;199.54;0.00;0.00;0.62;;;;;18.20;1.00;;;;;;2276143;61;1416;-86
2023/10/21 05:30:06;197563.00;0.66;341.73;0.00;0.00;0.62;;;;;18.30;1.00;;;;;;2276087;61;2007;-87
2023/10/21 05:32:36;237675.00;0.79;410.75;58940.00;0.20;102.64;;;;;18.30;1.00;;;;;;2276099;61;1548;-90
2023/10/21 05:35:07;100311.00;0.33;174.11;0.00;0.00;0.62;;;;;18.30;1.00;;;;;;2276190;61;1075;-86
2023/10/21 05:37:35;61867.00;0.21;107.70;0.00;0.00;0.62;;;;;18.30;1.00;;;;;;2276165;61;1651;-88
2023/10/21 05:40:02;0.00;0.00;0.62;0.00;0.00;0.62;;;;;18.20;1.00;;;;;;2276150;61;1445;-86
2023/10/21 05:42:29;30752.00;0.10;53.88;0.00;0.00;0.62;;;;;18.20;1.00;;;;;;2276073;61;1410;-87
2023/10/21 05:44:56;156344.00;0.52;270.74;0.00;0.00;0.62;;;;;18.40;1.00;;;;;;2276663;61;1590;-87
2023/10/21 05:47:23;145541.00;0.49;252.12;0.00;0.00;0.62;;;;;18.30;1.00;;;;;;2276913;61;914;-87
2023/10/21 05:49:50;8190.00;0.03;14.81;0.00;0.00;0.62;;;;;18.30;1.00;;;;;;2276925;61;1123;-88
2023/10/21 05:52:25;192495.00;0.64;333.00;0.00;0.00;0.62;;;;;18.20;1.00;;;;;;2276765;61;2001;-87
2023/10/21 05:54:55;8497.00;0.03;15.35;0.00;0.00;0.62;;;;;18.00;1.00;;;;;;2276826;61;1576;-87
2023/10/21 05:57:26;243895.00;0.81;421.45;33700.00;0.11;58.99;;;;;18.00;1.00;;;;;;2276863;61;1416;-86
2023/10/21 05:59:53;72507.00;0.24;126.09;0.00;0.00;0.62;;;;;18.20;1.00;;;;;;2276862;61;1615;-87
2023/10/21 06:02:20;120679.00;0.40;209.25;0.00;0.00;0.62;;;;;18.00;1.00;;;;;;2276767;61;1483;-87
2023/10/21 06:04:47;186859.00;0.62;323.30;0.00;0.00;0.62;;;;;18.00;1.00;;;;;;2276905;61;1054;-86
2023/10/21 06:07:14;214682.00;0.72;371.19;0.00;0.00;0.62;;;;;17.90;1.00;;;;;;2276794;61;1415;-87
2023/10/21 06:09:42;51446.00;0.17;89.69;0.00;0.00;0.62;;;;;17.70;1.00;;;;;;2276801;61;944;-86
2023/10/21 06:12:10;124980.00;0.42;216.67;0.00;0.00;0.62;;;;;17.50;1.00;;;;;;2276780;61;2014;-87
2023/10/21 06:14:37;20847.00;0.07;36.74;0.00;0.00;0.62;;;;;17.70;1.00;;;;;;2276783;61;976;-86
2023/10/21 06:17:04;200711.00;0.67;347.15;0.00;0.00;0.62;;;;;17.80;1.00;;;;;;2276724;61;1056;-87
2023/10/21 06:19:31;97486.00;0.32;169.23;0.00;0.00;0.62;;;;;18.00;1.00;;;;;;2276769;61;1454;-85
2023/10/21 06:21:58;109029.00;0.36;189.15;0.00;0.00;0.62;;;;;18.20;1.00;;;;;;2276727;61;1673;-86
2023/10/21 06:24:25;103755.00;0.35;180.05;0.00;0.00;0.62;;;;;18.20;1.00;;;;;;2276737;61;1529;-88
2023/10/21 06:26:53;151367.00;0.50;262.16;0.00;0.00;0.62;;;;;18.30;1.00;;;;;;2276736;61;1642;-87
2023/10/21 06:29:23;121319.00;0.40;210.36;0.00;0.00;0.62;;;;;18.50;1.00;;;;;;2276775;61;1022;-86
2023/10/21 06:31:50;3428.00;0.01;6.56;0.00;0.00;0.62;;;;;18.50;1.00;;;;;;2276650;61;1913;-87
2023/10/21 06:34:18;152994.00;0.51;264.97;0.00;0.00;0.62;;;;;18.80;1.00;;;;;;2276686;61;1655;-86
2023/10/21 06:36:45;151153.00;0.50;261.79;0.00;0.00;0.62;;;;;19.00;1.00;;;;;;2276703;61;1004;-87
2023/10/21 06:39:12;170727.00;0.57;295.52;0.00;0.00;0.62;;;;;19.10;1.00;;;;;;2276559;61;1605;-88
2023/10/21 06:41:38;142128.00;0.47;246.24;0.00;0.00;0.62;;;;;19.20;1.00;;;;;;2276752;61;1332;-86
2023/10/21 06:44:10;116519.00;0.39;202.08;0.00;0.00;0.62;;;;;19.40;1.00;;;;;;2276733;61;1008;-89
2023/10/21 06:46:36;110063.00;0.37;190.94;0.00;0.00;0.62;;;;;19.50;1.00;;;;;;2276774;61;1009;-89
2023/10/21 06:49:04;5911.00;0.02;10.86;0.00;0.00;0.62;;;;;19.50;1.00;;;;;;2276644;61;1162;-88
2023/10/21 06:51:31;166100.00;0.55;287.55;0.00;0.00;0.62;;;;;19.50;1.00;;;;;;2276611;61;1915;-88
2023/10/21 06:54:00;126406.00;0.42;219.13;0.00;0.00;0.62;;;;;19.50;1.00;;;;;;2276608;61;1631;-87
2023/10/21 06:56:35;66714.00;0.22;116.08;0.00;0.00;0.62;;;;;19.30;1.00;;;;;;2276540;61;1010;-89
2023/10/21 06:59:03;98787.00;0.33;171.48;0.00;0.00;0.62;;;;;19.30;1.00;;;;;;2276596;61;1175;-86
2023/10/21 07:01:32;79600.00;0.27;138.35;0.00;0.00;0.62;;;;;19.20;1.00;;;;;;2276571;61;1580;-88
2023/10/21 07:04:01;50992.00;0.17;88.90;0.00;0.00;0.62;;;;;19.30;1.00;;;;;;2276556;61;1492;-87
2023/10/21 07:06:28;306975.00;1.02;529.91;0.00;0.00;0.62;;;;;19.40;1.00;;;;;;2276622;61;1449;-88
2023/10/21 07:08:55;193454.00;0.64;334.66;0.00;0.00;0.62;;;;;19.20;1.00;;;;;;2276560;61;1131;-87
2023/10/21 07:11:21;12173.00;0.04;21.71;0.00;0.00;0.62;;;;;19.20;1.00;;;;;;2276599;61;1911;-87
2023/10/21 07:13:48;95626.00;0.32;166.02;0.00;0.00;0.62;;;;;19.40;1.00;;;;;;2276604;61;1411;-88
2023/10/21 07:16:15;101922.00;0.34;176.89;0.00;0.00;0.62;;;;;19.30;1.00;;;;;;2276610;61;1021;-88
2023/10/21 07:18:43;0.00;0.00;0.62;0.00;0.00;0.62;;;;;19.30;1.00;;;;;;2276375;61;1102;-87
2023/10/21 07:21:10;111497.00;0.37;193.41;0.00;0.00;0.62;;;;;19.40;1.00;;;;;;2276595;61;1558;-88
2023/10/21 07:23:37;48542.00;0.16;84.66;0.00;0.00;0.62;;;;;19.40;1.00;;;;;;2276499;61;1305;-89
2023/10/21 07:26:05;114585.00;0.38;198.74;0.00;0.00;0.62;;;;;19.40;1.00;;;;;;2276602;61;1002;-89
2023/10/21 07:28:33;91243.00;0.30;158.45;0.00;0.00;0.62;;;;;19.40;1.00;;;;;;2276550;61;1216;-88
2023/10/21 07:31:03;0.00;0.00;0.62;0.00;0.00;0.62;;;;;19.40;1.00;;;;;;2276548;61;2000;-86
2023/10/21 07:33:31;187265.00;0.62;324.00;0.00;0.00;0.62;;;;;19.50;1.00;;;;;;2276463;61;1561;-87
2023/10/21 07:36:04;105499.00;0.35;183.06;0.00;0.00;0.62;;;;;19.40;1.00;;;;;;2276405;61;1398;-87
2023/10/21 07:38:31;336225.00;1.12;580.19;77541.00;0.26;134.79;;;;;19.10;1.00;;;;;;2276496;61;1635;-88
2023/10/21 07:41:01;390588.00;1.30;673.63;78268.00;0.26;136.05;;;;;18.60;1.00;;;;;;2276428;61;1559;-87
2023/10/21 07:43:30;375789.00;1.25;648.19;80297.00;0.27;139.55;;;;;18.40;1.00;;;;;;2276484;61;1376;-86
2023/10/21 07:45:57;266131.00;0.89;459.69;82505.00;0.28;143.36;;;;;18.50;1.00;;;;;;2276553;61;1003;-87
2023/10/21 07:48:26;301898.00;1.01;521.18;78858.00;0.26;137.06;;;;;18.50;1.00;;;;;;2276446;61;1571;-87
2023/10/21 07:50:54;244473.00;0.81;422.44;69830.00;0.23;121.47;;;;;18.70;1.00;;;;;;2276220;61;2001;-86
2023/10/21 09:19:03;1287750.00;4.29;2249.70;0.00;0.00;0.62;;;;;19.80;1.00;;;;;;1589933;55;3544;-88
2023/10/21 09:34:07;1790784.00;5.97;3203.21;0.00;0.00;0.62;;;;;19.20;1.00;;;;;;2276222;61;1028;-89
2023/10/21 09:59:25;1779603.00;5.93;3181.16;78783.00;0.26;136.94;;;;;19.80;1.00;;;;;;2499249;55;3611;31
2023/10/21 10:16:57;1234111.00;4.11;2152.02;75269.00;0.25;130.86;;;;;20.50;1.00;;;;;;1996838;55;3571;-88
2023/10/21 10:19:37;192578.00;0.64;333.15;0.00;0.00;0.62;;;;;19.70;1.00;;;;;;2496273;55;4006;31
2023/10/21 11:17:32;2364527.00;7.88;4401.66;0.00;0.00;0.62;;;;;21.50;1.00;;;;;;2275779;61;1324;-90
2023/10/21 11:30:12;1666627.00;5.56;2960.76;0.00;0.00;0.62;;;;;21.80;1.00;;;;;;1238624;55;3546;-88
2023/10/21 11:52:50;1212925.00;4.04;2113.61;0.00;0.00;0.62;;;;;22.00;1.00;;;;;;2333256;40;3386;-88
2023/10/21 12:21:12;1198518.00;4.00;2087.54;0.00;0.00;0.62;;;;;22.60;1.00;;;;;;2277854;61;1051;-88
2023/10/21 13:01:39;1124700.00;3.75;1954.65;96556.00;0.32;167.63;;;;;20.60;1.00;;;;;;2300814;55;3630;-90
2023/10/21 13:21:45;1184029.00;3.95;2061.37;0.00;0.00;0.62;;;;;19.90;1.00;;;;;;1594266;55;3511;-89
2023/10/21 13:31:42;1525011.00;5.08;2690.27;0.00;0.00;0.62;;;;;20.20;1.00;;;;;;2323767;40;3495;-88
2023/10/21 13:34:12;1130158.00;3.77;1964.44;0.00;0.00;0.62;;;;;20.20;1.00;;;;;;2313132;40;3583;-90
2023/10/21 13:47:19;833675.00;2.78;1439.92;0.00;0.00;0.62;;;;;20.40;1.00;;;;;;2499261;40;3476;31
2023/10/21 14:48:29;;;;;;;;;;;;;;;;;;;;;
2023/10/21 15:38:41;810480.00;2.70;1399.41;0.00;0.00;0.62;;;;;21.80;1.00;;;;;;2499228;40;3565;31
2023/10/21 16:06:13;859431.00;2.86;1484.98;0.00;0.00;0.62;;;;;20.70;1.00;;;;;;2497736;55;3540;31
2023/10/21 16:13:43;773569.00;2.58;1335.07;87553.00;0.29;152.08;;;;;20.50;1.00;;;;;;1570010;56;3748;-88
2023/10/21 16:21:10;773669.00;2.58;1335.24;160111.00;0.53;277.23;;;;;20.40;1.00;;;;;;2279005;61;961;-90
2023/10/21 17:31:05;341912.00;1.14;589.96;0.00;0.00;0.62;;;;;18.60;1.00;;;;;;2278749;61;1512;-89
2023/10/21 17:38:31;288461.00;0.96;498.08;0.00;0.00;0.62;;;;;18.30;1.00;;;;;;2282353;61;1289;-91
2023/10/21 17:43:29;229538.00;0.77;396.75;0.00;0.00;0.62;;;;;18.50;1.00;;;;;;2278489;61;1315;-90
2023/10/21 17:50:56;601877.00;2.01;1037.46;0.00;0.00;0.62;;;;;18.30;1.00;;;;;;2278239;61;1001;-89
2023/10/21 20:21:59;669501.00;2.23;1154.39;70086.00;0.23;121.91;;;;;18.30;1.00;;;;;;2277848;61;1416;-89
2023/10/21 20:24:28;331918.00;1.11;572.78;87951.00;0.29;152.77;;;;;18.30;1.00;;;;;;2275829;61;1722;-87
2023/10/21 20:27:03;416367.00;1.39;717.94;78715.00;0.26;136.82;;;;;18.30;1.00;;;;;;2275834;61;1547;-86
2023/10/21 20:29:45;471417.00;1.57;812.63;89810.00;0.30;155.98;;;;;18.40;1.00;;;;;;2359570;40;3773;-88
2023/10/21 20:40:01;1233718.00;4.11;2151.30;0.00;0.00;0.62;;;;;19.10;1.00;;;;;;2277159;61;1264;-87
2023/10/21 20:42:30;80851.00;0.27;140.51;0.00;0.00;0.62;;;;;19.20;1.00;;;;;;2275756;61;1525;-87
2023/10/21 20:50:08;206922.00;0.69;357.84;0.00;0.00;0.62;;;;;19.10;1.00;;;;;;1241442;56;3091;-86
2023/10/21 20:52:51;204692.00;0.68;354.00;0.00;0.00;0.62;;;;;19.20;1.00;;;;;;2288075;40;3528;-88
2023/10/21 20:55:43;197590.00;0.66;341.78;0.00;0.00;0.62;;;;;19.20;1.00;;;;;;2275644;61;1669;-87
2023/10/21 21:03:25;833750.00;2.78;1440.05;0.00;0.00;0.62;;;;;18.70;1.00;;;;;;2276857;61;1397;-88
2023/10/21 21:05:57;117247.00;0.39;203.33;0.00;0.00;0.62;;;;;18.60;1.00;;;;;;2275856;61;1103;-86
2023/10/21 21:08:35;165984.00;0.55;287.35;0.00;0.00;0.62;;;;;18.60;1.00;;;;;;2328562;40;3762;-85
2023/10/21 21:13:40;854715.00;2.85;1476.72;81532.00;0.27;141.68;;;;;18.10;1.00;;;;;;2277225;61;1978;-85
2023/10/21 21:16:14;369829.00;1.23;637.94;60859.00;0.20;105.96;;;;;18.10;1.00;;;;;;2275681;61;1678;-88
2023/10/21 21:18:43;542204.00;1.81;934.52;77760.00;0.26;135.17;;;;;18.10;1.00;;;;;;2275760;61;1053;-88
2023/10/21 21:21:11;617083.00;2.06;1063.73;84602.00;0.28;146.99;;;;;18.10;1.00;;;;;;2275657;61;1692;-89
2023/10/21 21:23:44;468356.00;1.56;807.36;86757.00;0.29;150.71;;;;;18.30;1.00;;;;;;2284746;40;3625;-86
2023/10/21 21:26:16;297283.00;0.99;513.25;0.00;0.00;0.62;;;;;18.30;1.00;;;;;;2275795;61;1518;-87
2023/10/21 21:28:47;322701.00;1.08;556.94;0.00;0.00;0.62;;;;;18.40;1.00;;;;;;2275841;61;901;-88
2023/10/21 21:31:18;377211.00;1.26;650.63;0.00;0.00;0.62;;;;;18.40;1.00;;;;;;2275857;61;1217;-86
2023/10/21 21:33:47;501128.00;1.67;863.77;0.00;0.00;0.62;;;;;18.20;1.00;;;;;;2271601;61;1913;-86
2023/10/21 21:36:17;188121.00;0.63;325.47;0.00;0.00;0.62;;;;;18.00;1.00;;;;;;2271810;61;1145;-86
2023/10/21 21:41:18;874156.00;2.91;1510.77;0.00;0.00;0.62;;;;;17.90;1.00;;;;;;2269214;61;1400;-87
2023/10/21 21:44:04;294951.00;0.98;509.24;0.00;0.00;0.62;;;;;17.90;1.00;;;;;;2263624;61;1658;-86
2023/10/21 21:46:35;0.00;0.00;0.62;0.00;0.00;0.62;;;;;18.00;1.00;;;;;;2263582;61;1041;-86
2023/10/21 21:49:06;169146.00;0.56;292.80;0.00;0.00;0.62;;;;;17.80;1.00;;;;;;2263566;61;1685;-87
2023/10/21 21:51:37;164361.00;0.55;284.55;0.00;0.00;0.62;;;;;17.70;1.00;;;;;;2263646;61;1332;-87
2023/10/21 21:59:18;640138.00;2.13;1103.58;0.00;0.00;0.62;;;;;17.80;1.00;;;;;;2152474;59;1909;-87
2023/10/21 22:01:54;166669.00;0.56;288.53;0.00;0.00;0.62;;;;;17.70;1.00;;;;;;2275597;61;1670;-88
2023/10/21 22:04:23;112531.00;0.38;195.20;0.00;0.00;0.62;;;;;17.40;1.00;;;;;;2275647;61;1635;-88
2023/10/21 22:09:34;91619.00;0.31;159.10;0.00;0.00;0.62;;;;;17.40;1.00;;;;;;931896;40;3197;-87
2023/10/21 22:12:03;46845.00;0.16;81.73;0.00;0.00;0.62;;;;;17.40;1.00;;;;;;2275656;61;1632;-89
2023/10/21 22:14:31;0.00;0.00;0.62;0.00;0.00;0.62;;;;;17.50;1.00;;;;;;2275676;61;2009;-89
2023/10/21 22:17:08;366305.00;1.22;631.89;0.00;0.00;0.62;;;;;17.40;1.00;;;;;;2275682;61;1661;-89
2023/10/21 22:19:38;219676.00;0.73;379.79;0.00;0.00;0.62;;;;;17.20;1.00;;;;;;2275809;61;1556;-88
2023/10/21 22:22:11;51952.00;0.17;90.56;0.00;0.00;0.62;;;;;17.40;1.00;;;;;;2275623;61;1315;-86
2023/10/21 22:24:47;20466.00;0.07;36.08;0.00;0.00;0.62;;;;;17.50;1.00;;;;;;2275672;61;1680;-88
2023/10/21 22:27:26;383410.00;1.28;661.29;69146.00;0.23;120.28;;;;;17.50;1.00;;;;;;2275949;61;1473;-87
2023/10/21 22:30:03;368969.00;1.23;636.46;88994.00;0.30;154.57;;;;;17.60;1.00;;;;;;2276358;61;1762;-87
2023/10/21 22:32:35;406618.00;1.36;701.18;99216.00;0.33;172.22;;;;;17.70;1.00;;;;;;2276315;61;1923;-87
2023/10/21 22:35:01;439024.00;1.46;756.90;76273.00;0.25;132.60;;;;;17.70;1.00;;;;;;2276369;61;1488;-85
2023/10/21 22:37:28;456043.00;1.52;786.18;80218.00;0.27;139.41;;;;;17.50;1.00;;;;;;2276378;61;1124;-86
2023/10/21 22:39:59;604705.00;2.02;1042.34;79597.00;0.27;138.34;;;;;17.30;1.00;;;;;;2276310;61;1204;-89
2023/10/21 22:42:28;545162.00;1.82;939.62;80553.00;0.27;139.99;;;;;17.20;1.00;;;;;;2296218;40;3626;-89
2023/10/21 22:44:58;814408.00;2.71;1406.26;109007.00;0.36;189.12;;;;;17.10;1.00;;;;;;2276335;61;1625;-89
2023/10/21 22:47:31;570319.00;1.90;983.00;77744.00;0.26;135.14;;;;;17.10;1.00;;;;;;2276386;61;1596;-89
2023/10/21 22:50:00;228303.00;0.76;394.63;0.00;0.00;0.62;;;;;17.10;1.00;;;;;;2276327;61;1560;-87
2023/10/21 22:52:28;379246.00;1.26;654.13;0.00;0.00;0.62;;;;;17.10;1.00;;;;;;2276312;61;1919;-87
2023/10/21 22:54:56;370955.00;1.24;639.88;0.00;0.00;0.62;;;;;17.00;1.00;;;;;;2276296;61;1537;-86
2023/10/21 22:57:23;222797.00;0.74;385.16;0.00;0.00;0.62;;;;;16.90;1.00;;;;;;2276218;61;1718;-86
2023/10/21 22:59:56;481495.00;1.60;829.97;0.00;0.00;0.62;;;;;16.90;1.00;;;;;;2276091;61;1416;-87
2023/10/21 23:02:29;289383.00;0.96;499.67;0.00;0.00;0.62;;;;;16.70;1.00;;;;;;2276241;61;1596;-87
2023/10/21 23:12:39;797293.00;2.66;1376.40;65189.00;0.22;113.45;;;;;16.80;1.00;;;;;;2278111;61;1907;-88
2023/10/21 23:48:45;346147.00;1.15;597.24;0.00;0.00;0.62;;;;;15.20;1.00;;;;;;2331668;40;3642;-90
